createdAt,value
2023-02-20T00:02:57.774Z,3.06
2023-02-20T00:06:00.488Z,3.06
2023-02-20T00:09:03.216Z,3.06
2023-02-20T00:12:05.991Z,3.00
2023-02-20T00:15:09.027Z,2.94
2023-02-20T00:18:11.836Z,2.98
2023-02-20T00:21:14.579Z,3.11
2023-02-20T00:24:18.050Z,3.04
2023-02-20T00:27:20.860Z,2.98
2023-02-20T00:30:24.812Z,3.03
2023-02-20T00:33:27.714Z,2.91
2023-02-20T00:36:30.278Z,2.80
2023-02-20T00:39:33.713Z,2.96
2023-02-20T00:42:36.405Z,2.87
2023-02-20T00:45:39.115Z,2.78
2023-02-20T00:48:42.120Z,2.79
2023-02-20T00:52:03.673Z,2.88
2023-02-20T00:55:06.625Z,2.89
2023-02-20T00:58:09.652Z,2.79
2023-02-20T01:01:12.479Z,2.74
2023-02-20T01:04:15.655Z,2.67
2023-02-20T01:07:18.602Z,2.67
2023-02-20T01:10:21.520Z,2.61
2023-02-20T01:13:24.165Z,2.16
2023-02-20T01:16:27.000Z,2.13
2023-02-20T01:19:29.876Z,2.23
2023-02-20T01:22:32.723Z,2.36
2023-02-20T01:25:35.419Z,1.99
2023-02-20T01:28:38.710Z,1.92
2023-02-20T01:31:47.369Z,2.01
2023-02-20T01:34:51.432Z,1.98
2023-02-20T01:37:54.166Z,1.94
2023-02-20T01:40:56.828Z,1.85
2023-02-20T01:43:59.521Z,1.76
2023-02-20T01:47:23.190Z,1.95
2023-02-20T01:50:44.176Z,1.73
2023-02-20T01:53:46.939Z,1.64
2023-02-20T01:56:51.680Z,1.84
2023-02-20T02:00:00.918Z,1.83
2023-02-20T02:03:11.284Z,1.72
2023-02-20T02:06:16.196Z,1.66
2023-02-20T02:09:27.892Z,1.78
2023-02-20T02:12:30.703Z,1.87
2023-02-20T02:15:33.472Z,1.93
2023-02-20T02:19:08.539Z,1.91
2023-02-20T02:22:16.966Z,1.83
2023-02-20T02:25:38.402Z,1.78
2023-02-20T02:29:36.988Z,1.55
2023-02-20T02:33:04.564Z,1.54
2023-02-20T02:36:29.986Z,1.50
2023-02-20T02:39:47.906Z,1.48
2023-02-20T02:42:59.491Z,1.16
2023-02-20T02:46:14.082Z,1.19
2023-02-20T02:49:34.579Z,1.21
2023-02-20T02:52:49.692Z,1.10
2023-02-20T02:55:52.205Z,1.14
2023-02-20T02:58:55.504Z,1.20
2023-02-20T03:02:03.580Z,1.33
2023-02-20T03:05:10.354Z,1.28
2023-02-20T03:08:31.300Z,0.86
2023-02-20T03:11:36.266Z,0.99
2023-02-20T03:15:06.420Z,0.94
2023-02-20T03:18:18.227Z,0.94
2023-02-20T03:21:23.745Z,0.81
2023-02-20T03:24:29.212Z,0.69
2023-02-20T03:27:48.064Z,0.82
2023-02-20T03:31:06.919Z,0.76
2023-02-20T03:34:35.266Z,0.74
2023-02-20T03:38:00.860Z,0.75
2023-02-20T03:41:24.473Z,0.96
2023-02-20T03:44:30.719Z,1.07
2023-02-20T03:47:36.611Z,1.04
2023-02-20T03:50:59.676Z,1.14
2023-02-20T03:54:08.743Z,1.12
2023-02-20T03:57:38.392Z,1.06
2023-02-20T04:00:47.658Z,1.05
2023-02-20T04:03:53.498Z,0.98
2023-02-20T04:06:58.341Z,0.97
2023-02-20T04:10:07.036Z,1.02
2023-02-20T04:13:13.726Z,1.13
2023-02-20T04:16:21.199Z,1.24
2023-02-20T04:19:24.351Z,1.32
2023-02-20T04:22:32.726Z,1.35
2023-02-20T04:25:55.521Z,1.36
2023-02-20T04:28:59.036Z,1.38
2023-02-20T04:32:02.026Z,1.47
2023-02-20T04:35:17.082Z,1.55
2023-02-20T04:38:19.922Z,1.61
2023-02-20T04:41:23.242Z,1.75
2023-02-20T04:44:31.666Z,1.64
2023-02-20T04:47:35.227Z,1.49
2023-02-20T04:50:38.186Z,1.50
2023-02-20T04:53:42.454Z,1.62
2023-02-20T04:56:45.497Z,1.56
2023-02-20T04:59:48.653Z,1.50
2023-02-20T05:02:52.061Z,1.45
2023-02-20T05:05:54.901Z,1.42
2023-02-20T05:08:57.554Z,1.31
2023-02-20T05:12:00.154Z,1.42
2023-02-20T05:15:02.892Z,1.51
2023-02-20T05:18:05.949Z,1.58
2023-02-20T05:21:31.459Z,1.64
2023-02-20T05:24:34.292Z,1.62
2023-02-20T05:27:36.950Z,1.62
2023-02-20T05:30:40.860Z,1.69
2023-02-20T05:33:43.606Z,1.70
2023-02-20T05:36:46.535Z,1.75
2023-02-20T05:39:49.376Z,1.81
2023-02-20T05:42:52.190Z,1.80
2023-02-20T05:45:54.859Z,1.85
2023-02-20T05:48:57.649Z,1.94
2023-02-20T05:52:00.843Z,1.89
2023-02-20T05:55:03.903Z,1.99
2023-02-20T05:58:06.714Z,1.92
2023-02-20T06:02:13.382Z,1.95
2023-02-20T06:05:16.273Z,1.95
2023-02-20T06:08:19.002Z,2.11
2023-02-20T06:11:21.738Z,2.04
2023-02-20T06:14:26.356Z,2.00
2023-02-20T06:17:30.593Z,2.13
2023-02-20T06:20:33.337Z,2.16
2023-02-20T06:23:40.050Z,2.21
2023-02-20T06:26:43.752Z,2.23
2023-02-20T06:29:49.441Z,2.24
2023-02-20T06:32:52.338Z,2.42
2023-02-20T06:35:54.985Z,2.42
2023-02-20T06:38:59.368Z,2.52
2023-02-20T06:42:02.321Z,2.60
2023-02-20T06:45:05.431Z,2.73
2023-02-20T06:48:08.522Z,2.94
2023-02-20T06:51:11.371Z,2.96
2023-02-20T06:54:14.327Z,3.24
2023-02-20T06:57:16.983Z,3.35
2023-02-20T07:00:20.131Z,4.46
2023-02-20T07:03:22.943Z,6.01
2023-02-20T07:06:26.342Z,6.53
2023-02-20T07:09:29.364Z,6.83
2023-02-20T07:12:33.182Z,8.18
2023-02-20T07:15:36.004Z,8.01
2023-02-20T07:18:38.843Z,7.56
2023-02-20T07:21:41.538Z,8.34
2023-02-20T07:24:44.198Z,7.63
2023-02-20T07:27:46.946Z,7.52
2023-02-20T07:30:49.829Z,8.33
2023-02-20T07:33:52.643Z,8.72
2023-02-20T07:36:55.248Z,8.63
2023-02-20T07:39:58.167Z,7.74
2023-02-20T07:43:00.997Z,6.84
2023-02-20T07:46:05.337Z,6.89
2023-02-20T07:49:08.064Z,6.66
2023-02-20T07:52:10.989Z,6.72
2023-02-20T07:55:15.604Z,6.76
2023-02-20T07:58:18.297Z,6.66
2023-02-20T08:01:21.283Z,6.70
2023-02-20T08:04:24.036Z,6.80
2023-02-20T08:07:26.787Z,5.94
2023-02-20T08:10:30.191Z,6.08
2023-02-20T08:13:32.966Z,6.45
2023-02-20T08:16:35.751Z,6.54
2023-02-20T08:19:38.351Z,6.93
2023-02-20T08:22:42.173Z,6.46
2023-02-20T08:25:45.248Z,6.52
2023-02-20T08:28:49.607Z,6.44
2023-02-20T08:31:52.270Z,6.52
2023-02-20T08:34:55.186Z,6.95
2023-02-20T08:37:58.354Z,7.03
2023-02-20T08:41:09.026Z,6.87
2023-02-20T08:44:12.143Z,6.77
2023-02-20T08:47:14.860Z,6.60
2023-02-20T08:50:19.191Z,6.49
2023-02-20T08:53:22.276Z,6.75
2023-02-20T08:56:26.259Z,6.75
2023-02-20T09:03:59.919Z,7.27
2023-02-20T09:07:04.966Z,7.56
2023-02-20T09:10:08.191Z,7.64
2023-02-20T09:13:11.983Z,7.94
2023-02-20T09:16:18.886Z,8.06
2023-02-20T09:19:21.592Z,7.94
2023-02-20T09:22:27.821Z,8.37
2023-02-20T09:25:31.691Z,8.24
2023-02-20T09:28:34.674Z,8.72
2023-02-20T09:31:37.625Z,9.00
2023-02-20T09:34:40.613Z,9.68
2023-02-20T09:37:44.145Z,12.59
2023-02-20T09:40:50.590Z,13.71
2023-02-20T09:44:08.422Z,12.85
2023-02-20T09:47:48.380Z,11.73
2023-02-20T09:51:02.156Z,11.30
2023-02-20T09:54:16.136Z,10.62
2023-02-20T09:57:23.874Z,10.38
2023-02-20T10:00:35.911Z,10.69
2023-02-20T10:04:16.117Z,10.17
2023-02-20T10:07:26.381Z,9.70
2023-02-20T10:10:39.446Z,9.46
2023-02-20T10:14:11.231Z,9.09
2023-02-20T10:17:42.980Z,9.09
2023-02-20T10:21:01.694Z,9.15
2023-02-20T10:24:41.179Z,8.79
2023-02-20T10:27:46.652Z,8.64
2023-02-20T10:30:55.767Z,8.62
2023-02-20T10:34:10.464Z,7.94
2023-02-20T10:37:29.599Z,8.25
2023-02-20T10:40:45.146Z,8.52
2023-02-20T10:43:54.322Z,8.06
2023-02-20T10:47:07.430Z,8.28
2023-02-20T10:50:40.602Z,8.27
2023-02-20T10:53:55.528Z,8.55
2023-02-20T10:57:03.391Z,8.31
2023-02-20T11:00:46.464Z,8.85
2023-02-20T11:03:57.795Z,9.16
2023-02-20T11:12:48.643Z,8.97
2023-02-20T11:15:56.238Z,9.47
2023-02-20T11:19:23.756Z,9.40
2023-02-20T12:03:56.672Z,10.31
